sensor_id;sensor_type;location;lat;lon;timestamp;temperature;humidity
11385;DHT22;5747;56.748;13.882;2023-09-19T00:00:39;15.70;99.90
11385;DHT22;5747;56.748;13.882;2023-09-19T00:03:09;15.80;99.90
11385;DHT22;5747;56.748;13.882;2023-09-19T00:05:39;15.80;99.90
11385;DHT22;5747;56.748;13.882;2023-09-19T00:08:12;15.80;99.90
11385;DHT22;5747;56.748;13.882;2023-09-19T00:10:43;15.90;99.90
11385;DHT22;5747;56.748;13.882;2023-09-19T00:13:11;15.90;99.90
11385;DHT22;5747;56.748;13.882;2023-09-19T00:15:43;16.00;99.90
11385;DHT22;5747;56.748;13.882;2023-09-19T00:18:16;16.00;99.90
11385;DHT22;5747;56.748;13.882;2023-09-19T00:20:45;15.90;99.90
11385;DHT22;5747;56.748;13.882;2023-09-19T00:23:19;16.00;99.90
11385;DHT22;5747;56.748;13.882;2023-09-19T00:25:48;16.00;99.90
11385;DHT22;5747;56.748;13.882;2023-09-19T00:28:17;15.90;99.90
11385;DHT22;5747;56.748;13.882;2023-09-19T00:30:47;15.90;99.90
11385;DHT22;5747;56.748;13.882;2023-09-19T00:33:18;16.00;99.90
11385;DHT22;5747;56.748;13.882;2023-09-19T00:35:47;15.90;99.90
11385;DHT22;5747;56.748;13.882;2023-09-19T00:38:15;15.90;99.90
11385;DHT22;5747;56.748;13.882;2023-09-19T00:40:44;15.90;99.90
11385;DHT22;5747;56.748;13.882;2023-09-19T00:43:14;15.80;99.90
11385;DHT22;5747;56.748;13.882;2023-09-19T00:45:45;15.80;99.90
11385;DHT22;5747;56.748;13.882;2023-09-19T00:48:15;15.70;99.90
11385;DHT22;5747;56.748;13.882;2023-09-19T00:50:47;15.60;99.90
11385;DHT22;5747;56.748;13.882;2023-09-19T00:53:19;15.40;99.90
11385;DHT22;5747;56.748;13.882;2023-09-19T00:55:48;15.30;99.90
11385;DHT22;5747;56.748;13.882;2023-09-19T00:58:19;15.30;99.90
11385;DHT22;5747;56.748;13.882;2023-09-19T01:00:48;15.30;99.90
11385;DHT22;5747;56.748;13.882;2023-09-19T01:03:17;15.50;99.90
11385;DHT22;5747;56.748;13.882;2023-09-19T01:05:46;15.60;99.90
11385;DHT22;5747;56.748;13.882;2023-09-19T01:08:14;15.60;99.90
11385;DHT22;5747;56.748;13.882;2023-09-19T01:10:49;15.50;99.90
11385;DHT22;5747;56.748;13.882;2023-09-19T01:13:29;15.50;99.90
11385;DHT22;5747;56.748;13.882;2023-09-19T01:16:06;15.50;99.90
11385;DHT22;5747;56.748;13.882;2023-09-19T01:18:46;15.50;99.90
11385;DHT22;5747;56.748;13.882;2023-09-19T01:21:21;15.50;99.90
11385;DHT22;5747;56.748;13.882;2023-09-19T01:24:14;15.50;99.90
11385;DHT22;5747;56.748;13.882;2023-09-19T01:27:17;15.50;99.90
11385;DHT22;5747;56.748;13.882;2023-09-19T01:29:52;15.60;99.90
11385;DHT22;5747;56.748;13.882;2023-09-19T01:32:23;15.60;99.90
11385;DHT22;5747;56.748;13.882;2023-09-19T01:34:53;15.50;99.90
11385;DHT22;5747;56.748;13.882;2023-09-19T01:37:25;15.40;99.90
11385;DHT22;5747;56.748;13.882;2023-09-19T01:39:56;15.50;99.90
11385;DHT22;5747;56.748;13.882;2023-09-19T01:42:37;15.60;99.90
11385;DHT22;5747;56.748;13.882;2023-09-19T01:45:13;15.60;99.90
11385;DHT22;5747;56.748;13.882;2023-09-19T01:47:49;15.60;99.90
11385;DHT22;5747;56.748;13.882;2023-09-19T01:50:28;15.60;99.90
11385;DHT22;5747;56.748;13.882;2023-09-19T01:53:02;15.70;99.90
11385;DHT22;5747;56.748;13.882;2023-09-19T01:55:37;15.80;99.90
11385;DHT22;5747;56.748;13.882;2023-09-19T01:58:16;15.80;99.90
11385;DHT22;5747;56.748;13.882;2023-09-19T02:00:48;15.80;99.90
11385;DHT22;5747;56.748;13.882;2023-09-19T02:03:20;15.80;99.90
11385;DHT22;5747;56.748;13.882;2023-09-19T02:05:50;15.90;99.90
11385;DHT22;5747;56.748;13.882;2023-09-19T02:08:21;15.90;99.90
11385;DHT22;5747;56.748;13.882;2023-09-19T02:10:50;15.80;99.90
11385;DHT22;5747;56.748;13.882;2023-09-19T02:13:21;15.70;99.90
11385;DHT22;5747;56.748;13.882;2023-09-19T02:15:51;15.70;99.90
11385;DHT22;5747;56.748;13.882;2023-09-19T02:18:20;15.80;99.90
11385;DHT22;5747;56.748;13.882;2023-09-19T02:20:48;15.70;99.90
11385;DHT22;5747;56.748;13.882;2023-09-19T02:23:18;15.70;99.90
11385;DHT22;5747;56.748;13.882;2023-09-19T02:25:52;15.70;99.90
11385;DHT22;5747;56.748;13.882;2023-09-19T02:28:21;15.70;99.90
11385;DHT22;5747;56.748;13.882;2023-09-19T02:30:50;15.70;99.90
11385;DHT22;5747;56.748;13.882;2023-09-19T02:33:20;15.70;99.90
11385;DHT22;5747;56.748;13.882;2023-09-19T02:35:54;15.70;99.90
11385;DHT22;5747;56.748;13.882;2023-09-19T02:38:24;15.80;99.90
11385;DHT22;5747;56.748;13.882;2023-09-19T02:40:53;15.70;99.90
11385;DHT22;5747;56.748;13.882;2023-09-19T02:43:22;15.70;99.90
11385;DHT22;5747;56.748;13.882;2023-09-19T02:45:50;15.70;99.90
11385;DHT22;5747;56.748;13.882;2023-09-19T02:48:21;15.70;99.90
11385;DHT22;5747;56.748;13.882;2023-09-19T02:50:50;15.60;99.90
11385;DHT22;5747;56.748;13.882;2023-09-19T02:53:18;15.60;99.90
11385;DHT22;5747;56.748;13.882;2023-09-19T02:55:46;15.50;99.90
11385;DHT22;5747;56.748;13.882;2023-09-19T02:58:15;15.50;99.90
11385;DHT22;5747;56.748;13.882;2023-09-19T03:00:46;15.40;99.90
11385;DHT22;5747;56.748;13.882;2023-09-19T03:03:18;15.50;99.90
11385;DHT22;5747;56.748;13.882;2023-09-19T03:05:48;15.50;99.90
11385;DHT22;5747;56.748;13.882;2023-09-19T03:08:21;15.60;99.90
11385;DHT22;5747;56.748;13.882;2023-09-19T03:10:49;15.60;99.90
11385;DHT22;5747;56.748;13.882;2023-09-19T03:13:17;15.70;99.90
11385;DHT22;5747;56.748;13.882;2023-09-19T03:15:47;15.80;99.90
11385;DHT22;5747;56.748;13.882;2023-09-19T03:18:22;15.80;99.90
11385;DHT22;5747;56.748;13.882;2023-09-19T03:20:54;15.80;99.90
11385;DHT22;5747;56.748;13.882;2023-09-19T03:23:23;15.80;99.90
11385;DHT22;5747;56.748;13.882;2023-09-19T03:25:53;15.80;99.90
11385;DHT22;5747;56.748;13.882;2023-09-19T03:28:21;15.80;99.90
11385;DHT22;5747;56.748;13.882;2023-09-19T03:30:58;15.90;99.90
11385;DHT22;5747;56.748;13.882;2023-09-19T03:33:28;15.80;99.90
11385;DHT22;5747;56.748;13.882;2023-09-19T03:36:01;15.80;99.90
11385;DHT22;5747;56.748;13.882;2023-09-19T03:38:32;15.90;99.90
11385;DHT22;5747;56.748;13.882;2023-09-19T03:41:01;15.80;99.90
11385;DHT22;5747;56.748;13.882;2023-09-19T03:43:29;15.90;99.90
11385;DHT22;5747;56.748;13.882;2023-09-19T03:46:01;15.80;99.90
11385;DHT22;5747;56.748;13.882;2023-09-19T03:48:32;15.80;99.90
11385;DHT22;5747;56.748;13.882;2023-09-19T03:51:02;15.70;99.90
11385;DHT22;5747;56.748;13.882;2023-09-19T03:53:31;15.80;99.90
11385;DHT22;5747;56.748;13.882;2023-09-19T03:55:59;15.80;99.90
11385;DHT22;5747;56.748;13.882;2023-09-19T03:58:31;15.70;99.90
11385;DHT22;5747;56.748;13.882;2023-09-19T04:01:01;15.80;99.90
11385;DHT22;5747;56.748;13.882;2023-09-19T04:03:29;15.90;99.90
11385;DHT22;5747;56.748;13.882;2023-09-19T04:06:04;15.90;99.90
11385;DHT22;5747;56.748;13.882;2023-09-19T04:08:32;15.80;99.90
11385;DHT22;5747;56.748;13.882;2023-09-19T04:11:00;15.90;99.90
11385;DHT22;5747;56.748;13.882;2023-09-19T04:13:28;15.80;99.90
11385;DHT22;5747;56.748;13.882;2023-09-19T04:15:57;15.80;99.90
11385;DHT22;5747;56.748;13.882;2023-09-19T04:18:25;15.80;99.90
11385;DHT22;5747;56.748;13.882;2023-09-19T04:20:53;15.80;99.90
11385;DHT22;5747;56.748;13.882;2023-09-19T04:23:24;15.80;99.90
11385;DHT22;5747;56.748;13.882;2023-09-19T04:25:52;15.80;99.90
11385;DHT22;5747;56.748;13.882;2023-09-19T04:28:21;15.80;99.90
11385;DHT22;5747;56.748;13.882;2023-09-19T04:30:50;15.80;99.90
11385;DHT22;5747;56.748;13.882;2023-09-19T04:33:18;15.80;99.90
11385;DHT22;5747;56.748;13.882;2023-09-19T04:35:49;15.80;99.90
11385;DHT22;5747;56.748;13.882;2023-09-19T04:38:17;15.80;99.90
11385;DHT22;5747;56.748;13.882;2023-09-19T04:40:47;15.70;99.90
11385;DHT22;5747;56.748;13.882;2023-09-19T04:43:15;15.70;99.90
11385;DHT22;5747;56.748;13.882;2023-09-19T04:45:44;15.60;99.90
11385;DHT22;5747;56.748;13.882;2023-09-19T04:48:13;15.70;99.90
11385;DHT22;5747;56.748;13.882;2023-09-19T04:50:43;15.60;99.90
11385;DHT22;5747;56.748;13.882;2023-09-19T04:53:11;15.60;99.90
11385;DHT22;5747;56.748;13.882;2023-09-19T04:55:39;15.60;99.90
11385;DHT22;5747;56.748;13.882;2023-09-19T04:58:09;15.60;99.90
11385;DHT22;5747;56.748;13.882;2023-09-19T05:00:37;15.50;99.90
11385;DHT22;5747;56.748;13.882;2023-09-19T05:03:06;15.50;99.90
11385;DHT22;5747;56.748;13.882;2023-09-19T05:05:36;15.50;99.90
11385;DHT22;5747;56.748;13.882;2023-09-19T05:08:05;15.50;99.90
11385;DHT22;5747;56.748;13.882;2023-09-19T05:10:35;15.40;99.90
11385;DHT22;5747;56.748;13.882;2023-09-19T05:13:05;15.30;99.90
11385;DHT22;5747;56.748;13.882;2023-09-19T05:15:35;15.30;99.90
11385;DHT22;5747;56.748;13.882;2023-09-19T05:18:04;15.30;99.90
11385;DHT22;5747;56.748;13.882;2023-09-19T05:20:33;15.30;99.90
11385;DHT22;5747;56.748;13.882;2023-09-19T05:23:06;15.30;99.90
11385;DHT22;5747;56.748;13.882;2023-09-19T05:25:39;15.30;99.90
11385;DHT22;5747;56.748;13.882;2023-09-19T05:28:09;15.30;99.90
11385;DHT22;5747;56.748;13.882;2023-09-19T05:30:40;15.30;99.90
11385;DHT22;5747;56.748;13.882;2023-09-19T05:33:12;15.30;99.90
11385;DHT22;5747;56.748;13.882;2023-09-19T05:35:40;15.20;99.90
11385;DHT22;5747;56.748;13.882;2023-09-19T05:38:09;15.30;99.90
11385;DHT22;5747;56.748;13.882;2023-09-19T05:40:39;15.30;99.90
11385;DHT22;5747;56.748;13.882;2023-09-19T05:43:09;15.20;99.90
11385;DHT22;5747;56.748;13.882;2023-09-19T05:45:37;15.20;99.90
11385;DHT22;5747;56.748;13.882;2023-09-19T05:48:12;15.20;99.90
11385;DHT22;5747;56.748;13.882;2023-09-19T05:50:43;15.30;99.90
11385;DHT22;5747;56.748;13.882;2023-09-19T05:53:14;15.30;99.90
11385;DHT22;5747;56.748;13.882;2023-09-19T05:55:42;15.30;99.90
11385;DHT22;5747;56.748;13.882;2023-09-19T05:58:10;15.40;99.90
11385;DHT22;5747;56.748;13.882;2023-09-19T06:00:41;15.40;99.90
11385;DHT22;5747;56.748;13.882;2023-09-19T06:03:12;15.50;99.90
11385;DHT22;5747;56.748;13.882;2023-09-19T06:05:41;15.40;99.90
11385;DHT22;5747;56.748;13.882;2023-09-19T06:08:09;15.40;99.90
11385;DHT22;5747;56.748;13.882;2023-09-19T06:10:38;15.40;99.90
11385;DHT22;5747;56.748;13.882;2023-09-19T06:13:07;15.50;99.90
11385;DHT22;5747;56.748;13.882;2023-09-19T06:15:37;15.50;99.90
11385;DHT22;5747;56.748;13.882;2023-09-19T06:18:12;15.50;99.90
11385;DHT22;5747;56.748;13.882;2023-09-19T06:20:46;15.50;99.90
11385;DHT22;5747;56.748;13.882;2023-09-19T06:23:15;15.60;99.90
11385;DHT22;5747;56.748;13.882;2023-09-19T06:25:43;15.50;99.90
11385;DHT22;5747;56.748;13.882;2023-09-19T06:28:12;15.50;99.90
11385;DHT22;5747;56.748;13.882;2023-09-19T06:30:40;15.40;99.90
11385;DHT22;5747;56.748;13.882;2023-09-19T06:33:09;15.20;99.90
11385;DHT22;5747;56.748;13.882;2023-09-19T06:35:40;15.00;99.90
11385;DHT22;5747;56.748;13.882;2023-09-19T06:38:08;15.00;99.90
11385;DHT22;5747;56.748;13.882;2023-09-19T06:40:40;15.00;99.90
11385;DHT22;5747;56.748;13.882;2023-09-19T06:43:10;15.00;99.90
11385;DHT22;5747;56.748;13.882;2023-09-19T06:45:38;14.90;99.90
11385;DHT22;5747;56.748;13.882;2023-09-19T06:48:06;14.80;99.90
11385;DHT22;5747;56.748;13.882;2023-09-19T06:50:37;14.90;99.90
11385;DHT22;5747;56.748;13.882;2023-09-19T06:53:06;15.20;99.90
11385;DHT22;5747;56.748;13.882;2023-09-19T06:55:36;15.20;99.90
11385;DHT22;5747;56.748;13.882;2023-09-19T06:58:05;15.20;99.90
11385;DHT22;5747;56.748;13.882;2023-09-19T07:00:34;15.50;99.90
11385;DHT22;5747;56.748;13.882;2023-09-19T07:03:06;15.70;99.90
11385;DHT22;5747;56.748;13.882;2023-09-19T07:05:38;15.80;99.90
11385;DHT22;5747;56.748;13.882;2023-09-19T07:08:09;15.90;99.90
11385;DHT22;5747;56.748;13.882;2023-09-19T07:10:40;15.90;99.90
11385;DHT22;5747;56.748;13.882;2023-09-19T07:13:09;15.80;99.90
11385;DHT22;5747;56.748;13.882;2023-09-19T07:15:38;15.80;99.90
11385;DHT22;5747;56.748;13.882;2023-09-19T07:18:14;15.90;99.90
11385;DHT22;5747;56.748;13.882;2023-09-19T07:20:44;15.80;99.90
11385;DHT22;5747;56.748;13.882;2023-09-19T07:23:18;15.80;99.90
11385;DHT22;5747;56.748;13.882;2023-09-19T07:25:48;15.60;99.90
11385;DHT22;5747;56.748;13.882;2023-09-19T07:28:17;15.60;99.90
11385;DHT22;5747;56.748;13.882;2023-09-19T07:30:46;15.70;99.90
11385;DHT22;5747;56.748;13.882;2023-09-19T07:33:14;15.60;99.90
11385;DHT22;5747;56.748;13.882;2023-09-19T07:35:45;15.40;99.90
11385;DHT22;5747;56.748;13.882;2023-09-19T07:38:14;15.50;99.90
11385;DHT22;5747;56.748;13.882;2023-09-19T07:40:43;15.60;99.90
11385;DHT22;5747;56.748;13.882;2023-09-19T07:43:11;15.90;99.90
11385;DHT22;5747;56.748;13.882;2023-09-19T07:45:39;15.80;99.90
11385;DHT22;5747;56.748;13.882;2023-09-19T07:48:08;15.70;99.90
11385;DHT22;5747;56.748;13.882;2023-09-19T07:51:04;15.80;99.90
11385;DHT22;5747;56.748;13.882;2023-09-19T07:53:33;15.80;99.90
11385;DHT22;5747;56.748;13.882;2023-09-19T07:56:04;15.70;99.90
11385;DHT22;5747;56.748;13.882;2023-09-19T07:58:34;15.50;99.90
11385;DHT22;5747;56.748;13.882;2023-09-19T08:01:04;15.60;99.90
11385;DHT22;5747;56.748;13.882;2023-09-19T08:03:33;15.80;99.90
11385;DHT22;5747;56.748;13.882;2023-09-19T08:06:01;16.10;99.90
11385;DHT22;5747;56.748;13.882;2023-09-19T08:08:31;16.10;99.90
11385;DHT22;5747;56.748;13.882;2023-09-19T08:10:59;16.10;99.90
11385;DHT22;5747;56.748;13.882;2023-09-19T08:13:29;16.20;99.90
11385;DHT22;5747;56.748;13.882;2023-09-19T08:15:58;16.20;99.90
11385;DHT22;5747;56.748;13.882;2023-09-19T08:18:27;16.10;99.90
11385;DHT22;5747;56.748;13.882;2023-09-19T08:20:57;16.00;99.90
11385;DHT22;5747;56.748;13.882;2023-09-19T08:23:27;15.60;99.90
11385;DHT22;5747;56.748;13.882;2023-09-19T08:25:58;15.70;99.90
11385;DHT22;5747;56.748;13.882;2023-09-19T08:28:30;15.70;99.90
11385;DHT22;5747;56.748;13.882;2023-09-19T08:31:01;15.60;99.90
11385;DHT22;5747;56.748;13.882;2023-09-19T08:33:32;15.70;99.90
11385;DHT22;5747;56.748;13.882;2023-09-19T08:36:00;15.80;99.90
11385;DHT22;5747;56.748;13.882;2023-09-19T08:38:31;16.30;99.90
11385;DHT22;5747;56.748;13.882;2023-09-19T08:41:00;16.60;99.90
11385;DHT22;5747;56.748;13.882;2023-09-19T08:43:30;17.10;99.90
11385;DHT22;5747;56.748;13.882;2023-09-19T08:46:09;17.40;99.90
11385;DHT22;5747;56.748;13.882;2023-09-19T08:48:39;17.30;99.90
11385;DHT22;5747;56.748;13.882;2023-09-19T08:51:17;17.30;99.90
11385;DHT22;5747;56.748;13.882;2023-09-19T08:53:51;17.50;99.90
11385;DHT22;5747;56.748;13.882;2023-09-19T08:56:21;17.30;99.90
11385;DHT22;5747;56.748;13.882;2023-09-19T08:58:54;16.10;99.90
11385;DHT22;5747;56.748;13.882;2023-09-19T09:01:27;14.40;99.90
11385;DHT22;5747;56.748;13.882;2023-09-19T09:03:56;13.50;99.90
11385;DHT22;5747;56.748;13.882;2023-09-19T09:06:26;13.10;99.90
11385;DHT22;5747;56.748;13.882;2023-09-19T09:08:58;12.70;99.90
11385;DHT22;5747;56.748;13.882;2023-09-19T09:11:26;12.60;99.90
11385;DHT22;5747;56.748;13.882;2023-09-19T09:13:56;12.50;99.90
11385;DHT22;5747;56.748;13.882;2023-09-19T09:16:25;12.30;99.90
11385;DHT22;5747;56.748;13.882;2023-09-19T09:18:53;12.20;99.90
11385;DHT22;5747;56.748;13.882;2023-09-19T09:21:22;12.00;99.90
11385;DHT22;5747;56.748;13.882;2023-09-19T09:23:52;11.90;99.90
11385;DHT22;5747;56.748;13.882;2023-09-19T09:26:41;11.80;99.90
11385;DHT22;5747;56.748;13.882;2023-09-19T09:29:11;11.90;99.90
11385;DHT22;5747;56.748;13.882;2023-09-19T09:31:41;12.00;99.90
11385;DHT22;5747;56.748;13.882;2023-09-19T09:34:11;12.00;99.90
11385;DHT22;5747;56.748;13.882;2023-09-19T09:36:40;12.20;99.90
11385;DHT22;5747;56.748;13.882;2023-09-19T09:39:09;12.30;99.90
11385;DHT22;5747;56.748;13.882;2023-09-19T09:41:45;12.50;99.90
11385;DHT22;5747;56.748;13.882;2023-09-19T09:44:16;12.60;99.90
11385;DHT22;5747;56.748;13.882;2023-09-19T09:46:46;12.60;99.90
11385;DHT22;5747;56.748;13.882;2023-09-19T09:49:28;12.60;99.90
11385;DHT22;5747;56.748;13.882;2023-09-19T09:52:02;12.50;99.90
11385;DHT22;5747;56.748;13.882;2023-09-19T09:54:38;12.60;99.90
11385;DHT22;5747;56.748;13.882;2023-09-19T09:57:11;12.70;99.90
11385;DHT22;5747;56.748;13.882;2023-09-19T09:59:50;12.70;99.90
11385;DHT22;5747;56.748;13.882;2023-09-19T10:02:21;12.80;99.90
11385;DHT22;5747;56.748;13.882;2023-09-19T10:04:56;12.90;99.90
11385;DHT22;5747;56.748;13.882;2023-09-19T10:07:41;13.00;99.90
11385;DHT22;5747;56.748;13.882;2023-09-19T10:10:30;13.10;99.90
11385;DHT22;5747;56.748;13.882;2023-09-19T10:13:06;13.30;99.90
11385;DHT22;5747;56.748;13.882;2023-09-19T10:15:42;13.40;99.90
11385;DHT22;5747;56.748;13.882;2023-09-19T10:18:20;13.20;99.90
11385;DHT22;5747;56.748;13.882;2023-09-19T10:20:49;13.20;99.90
11385;DHT22;5747;56.748;13.882;2023-09-19T10:23:19;13.40;99.90
11385;DHT22;5747;56.748;13.882;2023-09-19T10:25:50;13.50;99.90
11385;DHT22;5747;56.748;13.882;2023-09-19T10:28:20;13.60;99.90
11385;DHT22;5747;56.748;13.882;2023-09-19T10:30:51;13.30;99.90
11385;DHT22;5747;56.748;13.882;2023-09-19T10:33:22;13.40;99.90
11385;DHT22;5747;56.748;13.882;2023-09-19T10:35:53;13.40;99.90
11385;DHT22;5747;56.748;13.882;2023-09-19T10:38:24;13.60;99.90
11385;DHT22;5747;56.748;13.882;2023-09-19T10:40:54;14.00;99.90
11385;DHT22;5747;56.748;13.882;2023-09-19T10:43:26;14.20;99.90
11385;DHT22;5747;56.748;13.882;2023-09-19T10:46:07;14.40;99.90
11385;DHT22;5747;56.748;13.882;2023-09-19T10:48:38;14.40;99.90
11385;DHT22;5747;56.748;13.882;2023-09-19T10:51:10;14.30;99.90
11385;DHT22;5747;56.748;13.882;2023-09-19T10:53:47;14.20;99.90
11385;DHT22;5747;56.748;13.882;2023-09-19T10:56:21;14.30;99.90
11385;DHT22;5747;56.748;13.882;2023-09-19T10:58:49;14.30;99.90
11385;DHT22;5747;56.748;13.882;2023-09-19T11:01:19;14.30;99.90
11385;DHT22;5747;56.748;13.882;2023-09-19T11:03:48;14.30;99.90
11385;DHT22;5747;56.748;13.882;2023-09-19T11:06:39;14.50;99.90
11385;DHT22;5747;56.748;13.882;2023-09-19T11:09:08;14.40;99.90
11385;DHT22;5747;56.748;13.882;2023-09-19T11:11:51;14.50;99.90
11385;DHT22;5747;56.748;13.882;2023-09-19T11:14:40;14.50;99.90
11385;DHT22;5747;56.748;13.882;2023-09-19T11:17:43;14.60;99.90
11385;DHT22;5747;56.748;13.882;2023-09-19T11:20:21;14.60;99.90
11385;DHT22;5747;56.748;13.882;2023-09-19T11:23:23;14.70;99.90
11385;DHT22;5747;56.748;13.882;2023-09-19T11:25:52;14.80;99.90
11385;DHT22;5747;56.748;13.882;2023-09-19T11:28:31;15.00;99.90
11385;DHT22;5747;56.748;13.882;2023-09-19T11:30:59;15.10;99.90
11385;DHT22;5747;56.748;13.882;2023-09-19T11:40:46;16.10;99.90
11385;DHT22;5747;56.748;13.882;2023-09-19T11:43:29;16.00;99.90
11385;DHT22;5747;56.748;13.882;2023-09-19T11:46:07;15.80;99.90
11385;DHT22;5747;56.748;13.882;2023-09-19T11:48:35;15.80;99.90
11385;DHT22;5747;56.748;13.882;2023-09-19T11:51:17;15.20;99.90
11385;DHT22;5747;56.748;13.882;2023-09-19T11:53:51;14.40;99.90
11385;DHT22;5747;56.748;13.882;2023-09-19T11:56:21;13.20;99.90
11385;DHT22;5747;56.748;13.882;2023-09-19T11:58:52;12.60;99.90
11385;DHT22;5747;56.748;13.882;2023-09-19T12:01:24;12.00;99.90
11385;DHT22;5747;56.748;13.882;2023-09-19T12:03:57;11.70;99.90
11385;DHT22;5747;56.748;13.882;2023-09-19T12:06:28;11.70;99.90
11385;DHT22;5747;56.748;13.882;2023-09-19T12:08:57;12.00;99.90
11385;DHT22;5747;56.748;13.882;2023-09-19T12:11:29;12.10;99.90
11385;DHT22;5747;56.748;13.882;2023-09-19T12:14:02;12.20;99.90
11385;DHT22;5747;56.748;13.882;2023-09-19T12:16:31;12.30;99.90
11385;DHT22;5747;56.748;13.882;2023-09-19T12:19:19;12.60;99.90
11385;DHT22;5747;56.748;13.882;2023-09-19T12:21:58;13.00;99.90
11385;DHT22;5747;56.748;13.882;2023-09-19T12:24:32;13.40;99.90
11385;DHT22;5747;56.748;13.882;2023-09-19T12:27:04;13.80;99.90
11385;DHT22;5747;56.748;13.882;2023-09-19T12:29:42;14.10;99.90
11385;DHT22;5747;56.748;13.882;2023-09-19T12:32:11;14.60;99.90
11385;DHT22;5747;56.748;13.882;2023-09-19T12:34:40;14.70;99.90
11385;DHT22;5747;56.748;13.882;2023-09-19T12:37:12;14.80;99.90
11385;DHT22;5747;56.748;13.882;2023-09-19T12:39:43;14.50;99.90
11385;DHT22;5747;56.748;13.882;2023-09-19T12:42:16;14.30;99.90
11385;DHT22;5747;56.748;13.882;2023-09-19T12:44:46;14.40;99.90
11385;DHT22;5747;56.748;13.882;2023-09-19T12:47:15;14.20;99.90
11385;DHT22;5747;56.748;13.882;2023-09-19T12:50:09;13.80;99.90
11385;DHT22;5747;56.748;13.882;2023-09-19T12:52:44;13.70;99.90
11385;DHT22;5747;56.748;13.882;2023-09-19T12:55:22;12.90;99.90
11385;DHT22;5747;56.748;13.882;2023-09-19T12:58:07;12.40;99.90
11385;DHT22;5747;56.748;13.882;2023-09-19T13:00:37;12.20;99.90
11385;DHT22;5747;56.748;13.882;2023-09-19T13:03:16;12.10;99.90
11385;DHT22;5747;56.748;13.882;2023-09-19T13:05:50;12.10;99.90
11385;DHT22;5747;56.748;13.882;2023-09-19T13:08:24;12.50;99.90
11385;DHT22;5747;56.748;13.882;2023-09-19T13:11:06;12.70;99.90
11385;DHT22;5747;56.748;13.882;2023-09-19T13:13:38;12.70;99.90
11385;DHT22;5747;56.748;13.882;2023-09-19T13:16:08;12.80;99.90
11385;DHT22;5747;56.748;13.882;2023-09-19T13:18:46;13.10;99.90
11385;DHT22;5747;56.748;13.882;2023-09-19T13:21:32;13.20;99.90
11385;DHT22;5747;56.748;13.882;2023-09-19T13:24:22;13.40;99.90
11385;DHT22;5747;56.748;13.882;2023-09-19T13:26:54;13.50;99.90
11385;DHT22;5747;56.748;13.882;2023-09-19T13:29:23;13.50;99.90
11385;DHT22;5747;56.748;13.882;2023-09-19T13:31:52;13.30;99.90
11385;DHT22;5747;56.748;13.882;2023-09-19T13:34:20;13.20;99.90
11385;DHT22;5747;56.748;13.882;2023-09-19T13:36:49;13.10;99.90
11385;DHT22;5747;56.748;13.882;2023-09-19T13:39:17;13.10;99.90
11385;DHT22;5747;56.748;13.882;2023-09-19T13:41:47;13.00;99.90
11385;DHT22;5747;56.748;13.882;2023-09-19T13:44:15;13.00;99.90
11385;DHT22;5747;56.748;13.882;2023-09-19T13:46:44;13.00;99.90
11385;DHT22;5747;56.748;13.882;2023-09-19T13:49:14;13.20;99.90
11385;DHT22;5747;56.748;13.882;2023-09-19T13:51:42;13.40;99.90
11385;DHT22;5747;56.748;13.882;2023-09-19T13:54:11;13.60;99.90
11385;DHT22;5747;56.748;13.882;2023-09-19T13:56:41;13.80;99.90
11385;DHT22;5747;56.748;13.882;2023-09-19T13:59:10;13.70;99.90
11385;DHT22;5747;56.748;13.882;2023-09-19T14:01:38;13.80;99.90
11385;DHT22;5747;56.748;13.882;2023-09-19T14:04:07;14.00;99.90
11385;DHT22;5747;56.748;13.882;2023-09-19T14:06:35;14.30;99.90
11385;DHT22;5747;56.748;13.882;2023-09-19T14:09:04;14.40;99.90
11385;DHT22;5747;56.748;13.882;2023-09-19T14:11:32;14.50;99.90
11385;DHT22;5747;56.748;13.882;2023-09-19T14:14:00;14.80;99.90
11385;DHT22;5747;56.748;13.882;2023-09-19T14:16:30;15.00;99.90
11385;DHT22;5747;56.748;13.882;2023-09-19T14:18:58;15.20;99.90
11385;DHT22;5747;56.748;13.882;2023-09-19T14:21:26;15.40;99.90
11385;DHT22;5747;56.748;13.882;2023-09-19T14:23:54;15.60;99.90
11385;DHT22;5747;56.748;13.882;2023-09-19T14:26:22;15.70;99.90
11385;DHT22;5747;56.748;13.882;2023-09-19T14:28:51;15.60;99.90
11385;DHT22;5747;56.748;13.882;2023-09-19T14:31:19;15.70;99.90
11385;DHT22;5747;56.748;13.882;2023-09-19T14:33:54;15.90;99.90
11385;DHT22;5747;56.748;13.882;2023-09-19T14:36:23;15.80;99.90
11385;DHT22;5747;56.748;13.882;2023-09-19T14:38:53;15.80;99.90
11385;DHT22;5747;56.748;13.882;2023-09-19T14:41:24;15.80;99.90
11385;DHT22;5747;56.748;13.882;2023-09-19T14:43:53;15.40;99.90
11385;DHT22;5747;56.748;13.882;2023-09-19T14:46:22;15.20;99.90
11385;DHT22;5747;56.748;13.882;2023-09-19T14:48:51;15.10;99.90
11385;DHT22;5747;56.748;13.882;2023-09-19T14:51:21;14.80;99.90
11385;DHT22;5747;56.748;13.882;2023-09-19T14:53:49;14.50;99.90
11385;DHT22;5747;56.748;13.882;2023-09-19T14:56:17;14.40;99.90
11385;DHT22;5747;56.748;13.882;2023-09-19T14:58:47;14.30;99.90
11385;DHT22;5747;56.748;13.882;2023-09-19T15:01:15;14.30;99.90
11385;DHT22;5747;56.748;13.882;2023-09-19T15:03:43;14.40;99.90
11385;DHT22;5747;56.748;13.882;2023-09-19T15:06:13;14.50;99.90
11385;DHT22;5747;56.748;13.882;2023-09-19T15:08:46;14.40;99.90
11385;DHT22;5747;56.748;13.882;2023-09-19T15:11:16;14.20;99.90
11385;DHT22;5747;56.748;13.882;2023-09-19T15:13:45;14.10;99.90
11385;DHT22;5747;56.748;13.882;2023-09-19T15:16:14;14.10;99.90
11385;DHT22;5747;56.748;13.882;2023-09-19T15:18:45;14.10;99.90
11385;DHT22;5747;56.748;13.882;2023-09-19T15:21:15;14.10;99.90
11385;DHT22;5747;56.748;13.882;2023-09-19T15:23:46;14.00;99.90
11385;DHT22;5747;56.748;13.882;2023-09-19T15:26:14;14.00;99.90
11385;DHT22;5747;56.748;13.882;2023-09-19T15:28:47;13.90;99.90
11385;DHT22;5747;56.748;13.882;2023-09-19T15:31:17;13.90;99.90
11385;DHT22;5747;56.748;13.882;2023-09-19T15:33:45;14.00;99.90
11385;DHT22;5747;56.748;13.882;2023-09-19T15:36:14;13.90;99.90
11385;DHT22;5747;56.748;13.882;2023-09-19T15:39:07;13.90;99.90
11385;DHT22;5747;56.748;13.882;2023-09-19T15:41:39;13.90;99.90
11385;DHT22;5747;56.748;13.882;2023-09-19T15:44:12;13.80;99.90
11385;DHT22;5747;56.748;13.882;2023-09-19T15:46:42;13.80;99.90
11385;DHT22;5747;56.748;13.882;2023-09-19T15:49:12;13.60;99.90
11385;DHT22;5747;56.748;13.882;2023-09-19T15:51:40;13.60;99.90
11385;DHT22;5747;56.748;13.882;2023-09-19T15:54:13;13.60;99.90
11385;DHT22;5747;56.748;13.882;2023-09-19T15:56:41;13.60;99.90
11385;DHT22;5747;56.748;13.882;2023-09-19T15:59:10;13.50;99.90
11385;DHT22;5747;56.748;13.882;2023-09-19T16:01:40;13.50;99.90
11385;DHT22;5747;56.748;13.882;2023-09-19T16:04:10;13.60;99.90